sensor_id;sensor_type;location;lat;lon;timestamp;pressure;altitude;pressure_sealevel;temperature;humidity
17209;BME280;8720;48.488;9.202;2022-08-30T00:01:04;97233.03;;;22.78;53.19
17209;BME280;8720;48.488;9.202;2022-08-30T00:03:35;97231.63;;;22.72;53.61
17209;BME280;8720;48.488;9.202;2022-08-30T00:06:04;97236.97;;;22.72;53.49
17209;BME280;8720;48.488;9.202;2022-08-30T00:08:33;97234.06;;;22.63;53.68
17209;BME280;8720;48.488;9.202;2022-08-30T00:11:02;97230.78;;;22.59;53.86
17209;BME280;8720;48.488;9.202;2022-08-30T00:13:30;97238.56;;;22.62;53.87
17209;BME280;8720;48.488;9.202;2022-08-30T00:15:58;97237.91;;;22.58;53.72
17209;BME280;8720;48.488;9.202;2022-08-30T00:18:25;97241.72;;;22.54;53.67
17209;BME280;8720;48.488;9.202;2022-08-30T00:20:53;97228.16;;;22.45;54.11
17209;BME280;8720;48.488;9.202;2022-08-30T00:23:23;97233.81;;;22.40;54.52
17209;BME280;8720;48.488;9.202;2022-08-30T00:25:50;97236.56;;;22.39;54.29
17209;BME280;8720;48.488;9.202;2022-08-30T00:28:18;97240.19;;;22.38;54.41
17209;BME280;8720;48.488;9.202;2022-08-30T00:30:46;97241.13;;;22.37;54.70
17209;BME280;8720;48.488;9.202;2022-08-30T00:33:14;97233.97;;;22.25;54.46
17209;BME280;8720;48.488;9.202;2022-08-30T00:35:42;97249.56;;;22.31;54.80
17209;BME280;8720;48.488;9.202;2022-08-30T00:38:14;97241.88;;;22.26;54.47
17209;BME280;8720;48.488;9.202;2022-08-30T00:40:44;97243.03;;;22.22;54.87
17209;BME280;8720;48.488;9.202;2022-08-30T00:43:18;97242.38;;;22.19;54.74
17209;BME280;8720;48.488;9.202;2022-08-30T00:45:46;97248.66;;;22.18;54.82
17209;BME280;8720;48.488;9.202;2022-08-30T00:48:13;97243.53;;;22.15;54.77
17209;BME280;8720;48.488;9.202;2022-08-30T00:50:46;97244.69;;;22.11;55.15
17209;BME280;8720;48.488;9.202;2022-08-30T00:53:20;97245.84;;;22.07;55.10
17209;BME280;8720;48.488;9.202;2022-08-30T00:55:49;97251.28;;;22.05;55.37
17209;BME280;8720;48.488;9.202;2022-08-30T00:58:23;97249.56;;;22.04;55.00
17209;BME280;8720;48.488;9.202;2022-08-30T01:00:56;97246.25;;;22.01;55.59
17209;BME280;8720;48.488;9.202;2022-08-30T01:03:24;97233.72;;;21.89;55.72
17209;BME280;8720;48.488;9.202;2022-08-30T01:05:53;97254.47;;;21.98;55.31
17209;BME280;8720;48.488;9.202;2022-08-30T01:08:21;97248.38;;;21.96;55.74
17209;BME280;8720;48.488;9.202;2022-08-30T01:10:50;97249.53;;;21.92;55.81
17209;BME280;8720;48.488;9.202;2022-08-30T01:13:20;97232.59;;;21.79;55.80
17209;BME280;8720;48.488;9.202;2022-08-30T01:15:49;97250.69;;;21.88;55.83
17209;BME280;8720;48.488;9.202;2022-08-30T01:18:17;97246.41;;;21.85;56.00
17209;BME280;8720;48.488;9.202;2022-08-30T01:20:51;97247.47;;;21.83;55.89
17209;BME280;8720;48.488;9.202;2022-08-30T01:23:25;97244.09;;;21.79;56.10
17209;BME280;8720;48.488;9.202;2022-08-30T01:25:55;97257.53;;;21.78;55.98
17209;BME280;8720;48.488;9.202;2022-08-30T01:28:25;97258.78;;;21.72;56.21
17209;BME280;8720;48.488;9.202;2022-08-30T01:30:53;97256.09;;;21.72;56.07
17209;BME280;8720;48.488;9.202;2022-08-30T01:33:21;97253.66;;;21.69;55.73
17209;BME280;8720;48.488;9.202;2022-08-30T01:35:54;97253.94;;;21.64;55.99
17209;BME280;8720;48.488;9.202;2022-08-30T01:38:28;97250.63;;;21.61;56.33
17209;BME280;8720;48.488;9.202;2022-08-30T01:40:57;97256.13;;;21.58;56.30
17209;BME280;8720;48.488;9.202;2022-08-30T01:43:26;97249.22;;;21.55;56.12
17209;BME280;8720;48.488;9.202;2022-08-30T01:45:54;97249.28;;;21.54;56.22
17209;BME280;8720;48.488;9.202;2022-08-30T01:48:22;97254.81;;;21.51;56.42
17209;BME280;8720;48.488;9.202;2022-08-30T01:50:49;97249.78;;;21.46;56.17
17209;BME280;8720;48.488;9.202;2022-08-30T01:53:17;97251.78;;;21.43;56.33
17209;BME280;8720;48.488;9.202;2022-08-30T01:55:46;97245.91;;;21.38;56.66
17209;BME280;8720;48.488;9.202;2022-08-30T01:58:13;97253.03;;;21.37;56.54
17209;BME280;8720;48.488;9.202;2022-08-30T02:06:02;97245.06;;;21.23;56.81
17209;BME280;8720;48.488;9.202;2022-08-30T02:08:30;97240.13;;;21.17;56.93
17209;BME280;8720;48.488;9.202;2022-08-30T02:10:59;97253.03;;;21.23;57.26
17209;BME280;8720;48.488;9.202;2022-08-30T02:13:27;97268.25;;;21.21;57.10
17209;BME280;8720;48.488;9.202;2022-08-30T02:15:56;97260.66;;;21.15;57.12
17209;BME280;8720;48.488;9.202;2022-08-30T02:18:25;97256.28;;;21.14;57.12
17209;BME280;8720;48.488;9.202;2022-08-30T02:20:53;97254.59;;;21.13;57.14
17209;BME280;8720;48.488;9.202;2022-08-30T02:23:20;97258.84;;;21.16;57.30
17209;BME280;8720;48.488;9.202;2022-08-30T02:25:47;97262.47;;;21.15;57.45
17209;BME280;8720;48.488;9.202;2022-08-30T02:28:16;97248.41;;;21.13;57.38
17209;BME280;8720;48.488;9.202;2022-08-30T02:30:44;97249.75;;;21.06;57.46
17209;BME280;8720;48.488;9.202;2022-08-30T02:33:12;97254.84;;;21.09;57.44
17209;BME280;8720;48.488;9.202;2022-08-30T02:35:39;97247.91;;;21.06;57.57
17209;BME280;8720;48.488;9.202;2022-08-30T02:38:08;97257.91;;;21.03;57.43
17209;BME280;8720;48.488;9.202;2022-08-30T02:40:36;97245.56;;;21.02;57.54
17209;BME280;8720;48.488;9.202;2022-08-30T02:43:03;97240.28;;;21.00;57.64
17209;BME280;8720;48.488;9.202;2022-08-30T02:45:32;97244.75;;;21.00;57.66
17209;BME280;8720;48.488;9.202;2022-08-30T02:47:59;97242.94;;;21.00;57.76
17209;BME280;8720;48.488;9.202;2022-08-30T02:50:27;97234.19;;;20.98;57.70
17209;BME280;8720;48.488;9.202;2022-08-30T02:52:54;97234.38;;;20.95;57.72
17209;BME280;8720;48.488;9.202;2022-08-30T02:55:22;97235.91;;;20.85;58.18
17209;BME280;8720;48.488;9.202;2022-08-30T02:57:49;97243.59;;;20.90;57.95
17209;BME280;8720;48.488;9.202;2022-08-30T03:00:19;97225.38;;;20.83;57.82
17209;BME280;8720;48.488;9.202;2022-08-30T03:02:48;97230.03;;;20.80;57.94
17209;BME280;8720;48.488;9.202;2022-08-30T03:05:16;97234.31;;;20.83;57.91
17209;BME280;8720;48.488;9.202;2022-08-30T03:07:44;97232.56;;;20.81;58.40
17209;BME280;8720;48.488;9.202;2022-08-30T03:10:14;97237.03;;;20.81;58.09
17209;BME280;8720;48.488;9.202;2022-08-30T03:12:41;97232.84;;;20.77;58.26
17209;BME280;8720;48.488;9.202;2022-08-30T03:15:10;97234.69;;;20.76;58.15
17209;BME280;8720;48.488;9.202;2022-08-30T03:17:38;97238.38;;;20.74;58.25
17209;BME280;8720;48.488;9.202;2022-08-30T03:20:09;97229.53;;;20.73;58.32
17209;BME280;8720;48.488;9.202;2022-08-30T03:22:37;97208.72;;;20.66;58.02
17209;BME280;8720;48.488;9.202;2022-08-30T03:25:06;97217.19;;;20.72;58.30
17209;BME280;8720;48.488;9.202;2022-08-30T03:27:34;97208.72;;;20.66;58.17
17209;BME280;8720;48.488;9.202;2022-08-30T03:30:02;97213.66;;;20.72;58.29
17209;BME280;8720;48.488;9.202;2022-08-30T03:32:30;97209.59;;;20.66;58.33
17209;BME280;8720;48.488;9.202;2022-08-30T03:34:57;97216.53;;;20.69;58.45
17209;BME280;8720;48.488;9.202;2022-08-30T03:37:26;97210.25;;;20.70;58.38
17209;BME280;8720;48.488;9.202;2022-08-30T03:39:54;97206.25;;;20.63;58.35
17209;BME280;8720;48.488;9.202;2022-08-30T03:42:22;97210.44;;;20.67;58.17
17209;BME280;8720;48.488;9.202;2022-08-30T03:44:49;97215.84;;;20.65;58.18
17209;BME280;8720;48.488;9.202;2022-08-30T03:47:16;97211.47;;;20.64;58.18
17209;BME280;8720;48.488;9.202;2022-08-30T03:49:45;97214.25;;;20.63;58.14
17209;BME280;8720;48.488;9.202;2022-08-30T03:52:13;97220.50;;;20.62;58.07
17209;BME280;8720;48.488;9.202;2022-08-30T03:54:41;97215.28;;;20.60;58.07
17209;BME280;8720;48.488;9.202;2022-08-30T03:57:08;97176.03;;;20.36;58.00
17209;BME280;8720;48.488;9.202;2022-08-30T03:59:36;97214.72;;;20.55;58.00
17209;BME280;8720;48.488;9.202;2022-08-30T04:02:03;97214.78;;;20.54;58.37
17209;BME280;8720;48.488;9.202;2022-08-30T04:04:30;97214.88;;;20.52;58.29
17209;BME280;8720;48.488;9.202;2022-08-30T04:06:57;97212.31;;;20.51;58.46
17209;BME280;8720;48.488;9.202;2022-08-30T04:09:25;97215.91;;;20.50;58.27
17209;BME280;8720;48.488;9.202;2022-08-30T04:11:53;97219.53;;;20.49;58.32
17209;BME280;8720;48.488;9.202;2022-08-30T04:14:20;97217.78;;;20.48;58.37
17209;BME280;8720;48.488;9.202;2022-08-30T04:16:48;97223.22;;;20.46;58.29
17209;BME280;8720;48.488;9.202;2022-08-30T04:19:15;97218.09;;;20.43;58.39
17209;BME280;8720;48.488;9.202;2022-08-30T04:21:43;97231.38;;;20.43;58.52
17209;BME280;8720;48.488;9.202;2022-08-30T04:24:12;97227.09;;;20.41;58.64
17209;BME280;8720;48.488;9.202;2022-08-30T04:26:40;97228.06;;;20.40;58.35
17209;BME280;8720;48.488;9.202;2022-08-30T04:29:09;97224.63;;;20.38;58.24
17209;BME280;8720;48.488;9.202;2022-08-30T04:31:41;97226.03;;;20.29;58.43
17209;BME280;8720;48.488;9.202;2022-08-30T04:34:09;97228.69;;;20.29;58.54
17209;BME280;8720;48.488;9.202;2022-08-30T04:36:36;97232.97;;;20.32;58.40
17209;BME280;8720;48.488;9.202;2022-08-30T04:39:04;97239.22;;;20.31;58.41
17209;BME280;8720;48.488;9.202;2022-08-30T04:41:32;97222.69;;;20.26;58.37
17209;BME280;8720;48.488;9.202;2022-08-30T04:44:01;97232.56;;;20.53;58.72
17209;BME280;8720;48.488;9.202;2022-08-30T04:46:30;97236.50;;;20.46;58.35
17209;BME280;8720;48.488;9.202;2022-08-30T04:48:57;97240.28;;;20.42;58.46
17209;BME280;8720;48.488;9.202;2022-08-30T04:51:25;97242.19;;;20.40;58.53
17209;BME280;8720;48.488;9.202;2022-08-30T04:53:52;97221.81;;;20.25;58.49
17209;BME280;8720;48.488;9.202;2022-08-30T04:56:22;97247.50;;;20.40;58.37
17209;BME280;8720;48.488;9.202;2022-08-30T04:58:53;97241.34;;;20.40;58.42
17209;BME280;8720;48.488;9.202;2022-08-30T05:01:24;97246.66;;;20.40;58.74
17209;BME280;8720;48.488;9.202;2022-08-30T05:03:54;97265.25;;;20.40;58.59
17209;BME280;8720;48.488;9.202;2022-08-30T05:06:24;97256.22;;;20.42;58.49
17209;BME280;8720;48.488;9.202;2022-08-30T05:08:53;97267.63;;;20.44;58.46
17209;BME280;8720;48.488;9.202;2022-08-30T05:11:20;97274.56;;;20.47;58.68
17209;BME280;8720;48.488;9.202;2022-08-30T05:13:48;97270.78;;;20.51;58.87
17209;BME280;8720;48.488;9.202;2022-08-30T05:16:15;97278.56;;;20.54;58.33
17209;BME280;8720;48.488;9.202;2022-08-30T05:18:44;97279.34;;;20.56;58.42
17209;BME280;8720;48.488;9.202;2022-08-30T05:21:16;97288.94;;;20.58;58.55
17209;BME280;8720;48.488;9.202;2022-08-30T05:23:45;97280.88;;;20.60;58.43
17209;BME280;8720;48.488;9.202;2022-08-30T05:26:16;97288.00;;;20.59;58.71
17209;BME280;8720;48.488;9.202;2022-08-30T05:28:44;97286.69;;;20.66;58.48
17209;BME280;8720;48.488;9.202;2022-08-30T05:31:17;97292.47;;;20.73;58.80
17209;BME280;8720;48.488;9.202;2022-08-30T05:33:46;97292.13;;;20.79;58.67
17209;BME280;8720;48.488;9.202;2022-08-30T05:36:16;97288.31;;;20.83;58.68
17209;BME280;8720;48.488;9.202;2022-08-30T05:38:45;97295.66;;;20.94;58.83
17209;BME280;8720;48.488;9.202;2022-08-30T05:41:13;97289.13;;;20.99;58.61
17209;BME280;8720;48.488;9.202;2022-08-30T05:43:40;97282.41;;;21.08;58.73
17209;BME280;8720;48.488;9.202;2022-08-30T05:46:10;97285.56;;;21.14;58.47
17209;BME280;8720;48.488;9.202;2022-08-30T05:48:39;97283.28;;;21.22;58.56
17209;BME280;8720;48.488;9.202;2022-08-30T05:51:09;97280.22;;;21.28;58.37
17209;BME280;8720;48.488;9.202;2022-08-30T05:53:40;97258.56;;;21.34;58.23
17209;BME280;8720;48.488;9.202;2022-08-30T05:56:11;97263.31;;;21.43;58.09
17209;BME280;8720;48.488;9.202;2022-08-30T05:58:40;97255.78;;;21.50;58.24
17209;BME280;8720;48.488;9.202;2022-08-30T06:01:17;97254.53;;;21.55;58.31
17209;BME280;8720;48.488;9.202;2022-08-30T06:03:45;97261.72;;;21.67;58.22
17209;BME280;8720;48.488;9.202;2022-08-30T06:06:12;97261.16;;;21.77;58.10
17209;BME280;8720;48.488;9.202;2022-08-30T06:08:42;97253.75;;;21.82;57.87
17209;BME280;8720;48.488;9.202;2022-08-30T06:11:13;97253.34;;;21.88;57.75
17209;BME280;8720;48.488;9.202;2022-08-30T06:13:40;97265.97;;;21.98;57.61
17209;BME280;8720;48.488;9.202;2022-08-30T06:16:11;97265.63;;;22.17;57.65
17209;BME280;8720;48.488;9.202;2022-08-30T06:18:39;97258.78;;;22.52;58.22
17209;BME280;8720;48.488;9.202;2022-08-30T06:21:14;97264.31;;;23.01;57.58
17209;BME280;8720;48.488;9.202;2022-08-30T06:23:43;97271.47;;;23.51;56.95
17209;BME280;8720;48.488;9.202;2022-08-30T06:26:11;97262.88;;;24.07;56.28
17209;BME280;8720;48.488;9.202;2022-08-30T06:28:39;97266.56;;;24.64;56.04
17209;BME280;8720;48.488;9.202;2022-08-30T06:31:07;97270.13;;;25.33;54.71
17209;BME280;8720;48.488;9.202;2022-08-30T06:33:35;97260.84;;;25.92;53.79
17209;BME280;8720;48.488;9.202;2022-08-30T06:36:04;97268.78;;;26.47;52.80
17209;BME280;8720;48.488;9.202;2022-08-30T06:38:32;97257.06;;;27.01;52.34
17209;BME280;8720;48.488;9.202;2022-08-30T06:41:05;97253.16;;;27.55;51.23
17209;BME280;8720;48.488;9.202;2022-08-30T06:43:32;97258.72;;;28.03;50.13
17209;BME280;8720;48.488;9.202;2022-08-30T06:46:01;97253.53;;;28.49;49.12
17209;BME280;8720;48.488;9.202;2022-08-30T06:48:29;97252.28;;;28.92;48.35
17209;BME280;8720;48.488;9.202;2022-08-30T06:50:56;97248.38;;;29.32;48.04
17209;BME280;8720;48.488;9.202;2022-08-30T06:53:24;97243.00;;;29.69;47.04
17209;BME280;8720;48.488;9.202;2022-08-30T06:55:55;97238.72;;;30.03;46.47
17209;BME280;8720;48.488;9.202;2022-08-30T06:58:25;97244.81;;;30.32;45.38
17209;BME280;8720;48.488;9.202;2022-08-30T07:00:52;97243.34;;;30.56;44.82
17209;BME280;8720;48.488;9.202;2022-08-30T07:03:19;97249.06;;;30.70;44.13
17209;BME280;8720;48.488;9.202;2022-08-30T07:05:48;97255.06;;;30.82;43.91
17209;BME280;8720;48.488;9.202;2022-08-30T07:08:16;97255.06;;;30.99;43.55
17209;BME280;8720;48.488;9.202;2022-08-30T07:10:44;97255.69;;;31.11;43.24
17209;BME280;8720;48.488;9.202;2022-08-30T07:13:12;97251.88;;;31.21;42.77
17209;BME280;8720;48.488;9.202;2022-08-30T07:15:43;97257.88;;;31.33;42.93
17209;BME280;8720;48.488;9.202;2022-08-30T07:18:13;97254.94;;;31.44;42.79
17209;BME280;8720;48.488;9.202;2022-08-30T07:21:05;97250.63;;;31.59;42.75
17209;BME280;8720;48.488;9.202;2022-08-30T07:23:32;97255.91;;;31.69;42.07
17209;BME280;8720;48.488;9.202;2022-08-30T07:26:03;97249.13;;;31.65;41.69
17209;BME280;8720;48.488;9.202;2022-08-30T07:28:32;97244.22;;;31.60;41.46
17209;BME280;8720;48.488;9.202;2022-08-30T07:31:00;97253.69;;;31.64;41.44
17209;BME280;8720;48.488;9.202;2022-08-30T07:33:28;97253.69;;;31.64;41.25
17209;BME280;8720;48.488;9.202;2022-08-30T07:35:55;97254.88;;;31.62;41.04
17209;BME280;8720;48.488;9.202;2022-08-30T07:38:23;97254.00;;;31.61;41.07
17209;BME280;8720;48.488;9.202;2022-08-30T07:40:51;97246.56;;;31.63;40.76
17209;BME280;8720;48.488;9.202;2022-08-30T07:43:18;97250.81;;;31.66;40.82
17209;BME280;8720;48.488;9.202;2022-08-30T07:45:46;97255.09;;;31.68;40.32
17209;BME280;8720;48.488;9.202;2022-08-30T07:48:14;97256.75;;;31.69;40.76
17209;BME280;8720;48.488;9.202;2022-08-30T07:50:44;97250.50;;;31.69;40.44
17209;BME280;8720;48.488;9.202;2022-08-30T07:53:12;97239.66;;;31.69;40.49
17209;BME280;8720;48.488;9.202;2022-08-30T07:55:39;97246.63;;;31.71;40.43
17209;BME280;8720;48.488;9.202;2022-08-30T07:58:06;97258.13;;;31.73;40.30
17209;BME280;8720;48.488;9.202;2022-08-30T08:00:34;97251.41;;;31.77;40.81
17209;BME280;8720;48.488;9.202;2022-08-30T08:03:07;97260.56;;;31.84;40.37
17209;BME280;8720;48.488;9.202;2022-08-30T08:05:41;97259.38;;;31.87;40.55
17209;BME280;8720;48.488;9.202;2022-08-30T08:08:10;97262.47;;;31.92;40.96
17209;BME280;8720;48.488;9.202;2022-08-30T08:10:40;97262.00;;;31.96;40.95
17209;BME280;8720;48.488;9.202;2022-08-30T08:13:08;97272.69;;;32.06;40.68
17209;BME280;8720;48.488;9.202;2022-08-30T08:15:36;97270.69;;;32.08;40.37
17209;BME280;8720;48.488;9.202;2022-08-30T08:18:04;97266.09;;;32.00;40.62
17209;BME280;8720;48.488;9.202;2022-08-30T08:20:33;97274.50;;;31.97;40.47
17209;BME280;8720;48.488;9.202;2022-08-30T08:23:02;97260.72;;;31.83;40.66
17209;BME280;8720;48.488;9.202;2022-08-30T08:25:29;97255.47;;;31.81;40.49
17209;BME280;8720;48.488;9.202;2022-08-30T08:27:57;97263.03;;;31.70;40.85
17209;BME280;8720;48.488;9.202;2022-08-30T08:30:24;97254.34;;;31.58;40.80
17209;BME280;8720;48.488;9.202;2022-08-30T08:32:52;97249.84;;;31.41;41.02
17209;BME280;8720;48.488;9.202;2022-08-30T08:35:19;97251.88;;;31.21;40.78
17209;BME280;8720;48.488;9.202;2022-08-30T08:37:46;97248.06;;;31.06;41.20
17209;BME280;8720;48.488;9.202;2022-08-30T08:40:17;97245.69;;;30.86;41.64
17209;BME280;8720;48.488;9.202;2022-08-30T08:42:58;97256.38;;;30.78;41.88
17209;BME280;8720;48.488;9.202;2022-08-30T08:45:41;97253.72;;;30.60;42.03
17209;BME280;8720;48.488;9.202;2022-08-30T08:48:25;97250.84;;;30.44;42.53
17209;BME280;8720;48.488;9.202;2022-08-30T08:50:55;97251.78;;;30.35;42.53
17209;BME280;8720;48.488;9.202;2022-08-30T08:53:49;97250.09;;;30.24;42.99
17209;BME280;8720;48.488;9.202;2022-08-30T08:56:20;97249.88;;;30.18;42.60
17209;BME280;8720;48.488;9.202;2022-08-30T08:58:51;97247.63;;;30.13;43.28
17209;BME280;8720;48.488;9.202;2022-08-30T09:01:22;97244.50;;;30.08;43.16
17209;BME280;8720;48.488;9.202;2022-08-30T09:03:51;97247.91;;;30.10;43.05
17209;BME280;8720;48.488;9.202;2022-08-30T09:09:08;97247.34;;;30.07;42.76
17209;BME280;8720;48.488;9.202;2022-08-30T09:11:38;97230.09;;;30.00;43.27
17209;BME280;8720;48.488;9.202;2022-08-30T09:14:13;97230.94;;;30.00;42.90
17209;BME280;8720;48.488;9.202;2022-08-30T09:17:01;97229.22;;;29.99;43.43
17209;BME280;8720;48.488;9.202;2022-08-30T09:19:41;97223.81;;;29.99;43.52
17209;BME280;8720;48.488;9.202;2022-08-30T09:22:24;97223.81;;;29.99;43.10
17209;BME280;8720;48.488;9.202;2022-08-30T09:24:59;97225.66;;;29.99;43.09
17209;BME280;8720;48.488;9.202;2022-08-30T09:27:35;97227.53;;;29.98;43.03
17209;BME280;8720;48.488;9.202;2022-08-30T09:30:09;97227.22;;;30.01;43.29
17209;BME280;8720;48.488;9.202;2022-08-30T09:32:39;97224.09;;;30.06;42.38
17209;BME280;8720;48.488;9.202;2022-08-30T09:35:12;97222.09;;;30.08;42.90
17209;BME280;8720;48.488;9.202;2022-08-30T09:37:51;97221.06;;;30.09;43.05
17209;BME280;8720;48.488;9.202;2022-08-30T09:40:26;97217.50;;;30.08;42.63
17209;BME280;8720;48.488;9.202;2022-08-30T09:43:07;97215.38;;;30.12;42.59
17209;BME280;8720;48.488;9.202;2022-08-30T09:45:41;97211.50;;;30.14;42.31
17209;BME280;8720;48.488;9.202;2022-08-30T09:48:34;97197.03;;;30.15;42.69
17209;BME280;8720;48.488;9.202;2022-08-30T09:51:30;97193.31;;;30.16;43.19
17209;BME280;8720;48.488;9.202;2022-08-30T09:54:16;97196.09;;;30.24;43.14
17209;BME280;8720;48.488;9.202;2022-08-30T09:56:58;97201.06;;;30.29;42.32
17209;BME280;8720;48.488;9.202;2022-08-30T09:59:44;97186.16;;;30.25;42.32
17209;BME280;8720;48.488;9.202;2022-08-30T10:05:33;97182.72;;;30.32;42.41
17209;BME280;8720;48.488;9.202;2022-08-30T10:08:14;97176.69;;;30.38;43.03
17209;BME280;8720;48.488;9.202;2022-08-30T10:10:51;97177.75;;;30.45;42.10
17209;BME280;8720;48.488;9.202;2022-08-30T10:13:55;97175.75;;;30.48;42.96
17209;BME280;8720;48.488;9.202;2022-08-30T10:16:42;97169.38;;;30.49;42.43
17209;BME280;8720;48.488;9.202;2022-08-30T10:19:28;97167.03;;;30.54;42.41
17209;BME280;8720;48.488;9.202;2022-08-30T10:22:04;97158.31;;;30.60;41.58
17209;BME280;8720;48.488;9.202;2022-08-30T10:24:41;97157.00;;;30.64;41.62
17209;BME280;8720;48.488;9.202;2022-08-30T10:27:15;97153.09;;;30.66;42.04
17209;BME280;8720;48.488;9.202;2022-08-30T10:29:49;97147.78;;;30.74;41.43
17209;BME280;8720;48.488;9.202;2022-08-30T10:32:26;97151.00;;;30.78;41.46
17209;BME280;8720;48.488;9.202;2022-08-30T10:35:02;97147.84;;;30.82;41.73
17209;BME280;8720;48.488;9.202;2022-08-30T10:37:36;97147.56;;;30.85;41.46
17209;BME280;8720;48.488;9.202;2022-08-30T10:40:13;97136.25;;;30.90;41.31
17209;BME280;8720;48.488;9.202;2022-08-30T10:43:05;97135.78;;;30.94;41.05
17209;BME280;8720;48.488;9.202;2022-08-30T10:45:39;97144.25;;;30.99;40.87
17209;BME280;8720;48.488;9.202;2022-08-30T10:48:19;97144.47;;;31.06;40.20
17209;BME280;8720;48.488;9.202;2022-08-30T10:50:51;97136.41;;;31.14;40.41
17209;BME280;8720;48.488;9.202;2022-08-30T10:53:28;97143.19;;;31.18;39.81
17209;BME280;8720;48.488;9.202;2022-08-30T10:56:03;97143.88;;;31.20;39.51
17209;BME280;8720;48.488;9.202;2022-08-30T10:58:32;97145.41;;;31.22;39.28
17209;BME280;8720;48.488;9.202;2022-08-30T11:01:18;97149.81;;;31.23;39.44
17209;BME280;8720;48.488;9.202;2022-08-30T11:04:30;97141.53;;;31.25;40.28
17209;BME280;8720;48.488;9.202;2022-08-30T11:07:16;97139.88;;;31.32;38.69
17209;BME280;8720;48.488;9.202;2022-08-30T11:10:21;97143.00;;;31.37;39.07
17209;BME280;8720;48.488;9.202;2022-08-30T11:12:59;97140.69;;;31.50;37.91
17209;BME280;8720;48.488;9.202;2022-08-30T11:15:31;97137.84;;;31.60;37.86
17209;BME280;8720;48.488;9.202;2022-08-30T11:18:04;97146.03;;;31.76;37.10
17209;BME280;8720;48.488;9.202;2022-08-30T11:20:42;97145.88;;;31.85;36.76
17209;BME280;8720;48.488;9.202;2022-08-30T11:23:35;97144.56;;;31.97;37.34
17209;BME280;8720;48.488;9.202;2022-08-30T11:26:06;97139.38;;;32.12;36.45
17209;BME280;8720;48.488;9.202;2022-08-30T11:29:04;97145.31;;;32.24;37.13
17209;BME280;8720;48.488;9.202;2022-08-30T11:31:40;97140.91;;;32.39;36.37
17209;BME280;8720;48.488;9.202;2022-08-30T11:34:09;97138.25;;;32.47;36.01
17209;BME280;8720;48.488;9.202;2022-08-30T11:37:06;97143.31;;;32.58;36.56
17209;BME280;8720;48.488;9.202;2022-08-30T11:39:58;97137.91;;;32.66;36.61
17209;BME280;8720;48.488;9.202;2022-08-30T11:42:34;97139.41;;;32.76;35.46
17209;BME280;8720;48.488;9.202;2022-08-30T11:45:43;97144.00;;;32.84;36.67
17209;BME280;8720;48.488;9.202;2022-08-30T11:48:42;97135.13;;;32.90;36.28
17209;BME280;8720;48.488;9.202;2022-08-30T11:51:45;97138.22;;;33.03;35.74
17209;BME280;8720;48.488;9.202;2022-08-30T11:54:32;97137.00;;;33.14;35.27
17209;BME280;8720;48.488;9.202;2022-08-30T11:57:09;97131.38;;;33.23;35.16
17209;BME280;8720;48.488;9.202;2022-08-30T11:59:56;97134.56;;;33.35;34.78
17209;BME280;8720;48.488;9.202;2022-08-30T12:02:55;97133.69;;;33.42;34.75
17209;BME280;8720;48.488;9.202;2022-08-30T12:05:49;97130.28;;;33.48;34.73
17209;BME280;8720;48.488;9.202;2022-08-30T12:08:50;97130.25;;;33.56;34.82
17209;BME280;8720;48.488;9.202;2022-08-30T12:12:02;97131.59;;;33.60;35.09
17209;BME280;8720;48.488;9.202;2022-08-30T12:14:44;97131.88;;;33.73;34.19
17209;BME280;8720;48.488;9.202;2022-08-30T12:17:53;97128.97;;;33.75;34.27
17209;BME280;8720;48.488;9.202;2022-08-30T12:20:44;97128.94;;;33.83;33.90
17209;BME280;8720;48.488;9.202;2022-08-30T12:23:18;97121.59;;;33.91;33.29
17209;BME280;8720;48.488;9.202;2022-08-30T12:25:46;97115.81;;;33.94;32.80
17209;BME280;8720;48.488;9.202;2022-08-30T12:28:22;97116.94;;;34.08;33.08
17209;BME280;8720;48.488;9.202;2022-08-30T12:30:51;97123.84;;;34.19;32.25
17209;BME280;8720;48.488;9.202;2022-08-30T12:33:27;97119.38;;;34.26;32.04
17209;BME280;8720;48.488;9.202;2022-08-30T12:35:58;97119.50;;;34.32;31.97
17209;BME280;8720;48.488;9.202;2022-08-30T12:38:28;97111.81;;;34.36;32.18
17209;BME280;8720;48.488;9.202;2022-08-30T12:41:00;97108.69;;;34.47;31.34
17209;BME280;8720;48.488;9.202;2022-08-30T12:43:33;97113.41;;;34.53;31.40
17209;BME280;8720;48.488;9.202;2022-08-30T12:46:06;97101.50;;;34.54;31.51
17209;BME280;8720;48.488;9.202;2022-08-30T12:48:37;97088.28;;;34.51;31.13
17209;BME280;8720;48.488;9.202;2022-08-30T12:51:07;97110.25;;;34.64;31.18
17209;BME280;8720;48.488;9.202;2022-08-30T12:53:51;97099.19;;;34.65;30.86
17209;BME280;8720;48.488;9.202;2022-08-30T12:56:20;97096.09;;;34.68;30.56
17209;BME280;8720;48.488;9.202;2022-08-30T12:58:51;97094.25;;;34.69;30.50
17209;BME280;8720;48.488;9.202;2022-08-30T13:01:26;97088.31;;;34.65;30.40
17209;BME280;8720;48.488;9.202;2022-08-30T13:03:59;97080.72;;;34.61;30.10
17209;BME280;8720;48.488;9.202;2022-08-30T13:06:49;97074.31;;;34.54;30.96
17209;BME280;8720;48.488;9.202;2022-08-30T13:09:27;97075.94;;;34.63;30.67
17209;BME280;8720;48.488;9.202;2022-08-30T13:11:57;97074.91;;;34.64;30.24
17209;BME280;8720;48.488;9.202;2022-08-30T13:14:36;97074.25;;;34.62;30.01
17209;BME280;8720;48.488;9.202;2022-08-30T13:17:09;97062.22;;;34.56;30.06
17209;BME280;8720;48.488;9.202;2022-08-30T13:19:41;97064.34;;;34.46;29.79
17209;BME280;8720;48.488;9.202;2022-08-30T13:22:25;97062.06;;;34.35;30.28
17209;BME280;8720;48.488;9.202;2022-08-30T13:24:54;97051.25;;;34.27;29.80
17209;BME280;8720;48.488;9.202;2022-08-30T13:27:24;97044.63;;;34.30;30.10
17209;BME280;8720;48.488;9.202;2022-08-30T13:29:53;97052.75;;;34.30;29.77
17209;BME280;8720;48.488;9.202;2022-08-30T13:32:21;97045.72;;;34.21;29.91
17209;BME280;8720;48.488;9.202;2022-08-30T13:34:49;97046.44;;;34.15;29.69
17209;BME280;8720;48.488;9.202;2022-08-30T13:37:21;97049.59;;;34.04;30.09
17209;BME280;8720;48.488;9.202;2022-08-30T13:39:49;97044.91;;;33.89;30.42
17209;BME280;8720;48.488;9.202;2022-08-30T13:42:16;97046.72;;;33.74;30.44
17209;BME280;8720;48.488;9.202;2022-08-30T13:44:43;97035.41;;;33.63;30.42
17209;BME280;8720;48.488;9.202;2022-08-30T13:47:13;97028.50;;;33.52;30.53
17209;BME280;8720;48.488;9.202;2022-08-30T13:49:41;97023.75;;;33.46;30.53